ADR538 EKVG-EETN
Flight info
| Callsign | ADR538 |
|---|---|
| Flight time | 2h 8m |
| Altitude | 35000 |
| Route | RAKUP DCT NALAN DCT SOSAR/N0431F350 DCT IPTOK DCT DOPUX Z418 EVTOG DCT AGWIM DCT RUNGA DCT OSMUR |
| Aircraft | A319/M-SDE3FGHIRWY/LB1 |
Departure
| Time | 2026-05-07 12:29 |
|---|---|
| Airport | Vágar Airport (EKVG) |
Arrival
| Time | 2026-05-07 14:38 |
|---|---|
| Airport | Lennart Meri Tallinn Airport (EETN) |
| Time | Latitude | Longitude | Altitude | Speed | Heading |
|---|---|---|---|---|---|
| 2026-05-07 12:06 | 62.06667 | -7.27840 | 294 ft | 0 kts | 30° |
| 2026-05-07 12:22 | 62.06665 | -7.27842 | 294 ft | 1 kts | 31° |
| 2026-05-07 12:22 | 62.06652 | -7.27857 | 294 ft | 1 kts | 28° |
| 2026-05-07 12:23 | 62.06645 | -7.27867 | 294 ft | 1 kts | 14° |
| 2026-05-07 12:23 | 62.06632 | -7.27865 | 294 ft | 1 kts | 335° |
| 2026-05-07 12:23 | 62.06622 | -7.27849 | 294 ft | 0 kts | 302° |
| 2026-05-07 12:23 | 62.06619 | -7.27837 | 294 ft | 1 kts | 294° |
| 2026-05-07 12:24 | 62.06618 | -7.27832 | 294 ft | 0 kts | 296° |
| 2026-05-07 12:25 | 62.06620 | -7.27841 | 294 ft | 2 kts | 296° |
| 2026-05-07 12:25 | 62.06625 | -7.27864 | 294 ft | 0 kts | 295° |
| 2026-05-07 12:26 | 62.06634 | -7.27909 | 294 ft | 5 kts | 294° |
| 2026-05-07 12:26 | 62.06646 | -7.28015 | 294 ft | 8 kts | 264° |
| 2026-05-07 12:26 | 62.06591 | -7.28071 | 294 ft | 10 kts | 182° |
| 2026-05-07 12:26 | 62.06521 | -7.28107 | 294 ft | 11 kts | 205° |
| 2026-05-07 12:27 | 62.06485 | -7.28235 | 294 ft | 12 kts | 292° |
| 2026-05-07 12:27 | 62.06533 | -7.28419 | 294 ft | 15 kts | 301° |
| 2026-05-07 12:27 | 62.06585 | -7.28632 | 294 ft | 17 kts | 296° |
| 2026-05-07 12:27 | 62.06643 | -7.28868 | 294 ft | 17 kts | 299° |
| 2026-05-07 12:28 | 62.06696 | -7.29078 | 294 ft | 13 kts | 287° |
| 2026-05-07 12:28 | 62.06715 | -7.29169 | 294 ft | 4 kts | 170° |
| 2026-05-07 12:28 | 62.06707 | -7.29133 | 294 ft | 3 kts | 119° |
| 2026-05-07 12:28 | 62.06661 | -7.28931 | 294 ft | 40 kts | 110° |
| 2026-05-07 12:29 | 62.06416 | -7.27926 | 294 ft | 112 kts | 118° |
| 2026-05-07 12:29 | 62.05951 | -7.26151 | 515 ft | 153 kts | 117° |
| 2026-05-07 12:29 | 62.05365 | -7.24231 | 1286 ft | 153 kts | 115° |
| 2026-05-07 12:29 | 62.04733 | -7.22576 | 2121 ft | 153 kts | 139° |
| 2026-05-07 12:30 | 62.03663 | -7.22042 | 2803 ft | 170 kts | 174° |
| 2026-05-07 12:30 | 62.02483 | -7.22637 | 3371 ft | 183 kts | 186° |
| 2026-05-07 12:30 | 62.01215 | -7.23298 | 3788 ft | 194 kts | 181° |
| 2026-05-07 12:30 | 61.99862 | -7.23428 | 4359 ft | 193 kts | 163° |
| 2026-05-07 12:31 | 61.98739 | -7.22070 | 4866 ft | 194 kts | 129° |
| 2026-05-07 12:31 | 61.98159 | -7.19381 | 5221 ft | 217 kts | 99° |
| 2026-05-07 12:31 | 61.98040 | -7.16032 | 5744 ft | 235 kts | 98° |
| 2026-05-07 12:31 | 61.97857 | -7.12524 | 6416 ft | 246 kts | 99° |
| 2026-05-07 12:32 | 61.97657 | -7.08924 | 7217 ft | 251 kts | 99° |
| 2026-05-07 12:32 | 61.97450 | -7.05184 | 8039 ft | 256 kts | 100° |
| 2026-05-07 12:32 | 61.97246 | -7.01456 | 8829 ft | 260 kts | 100° |
| 2026-05-07 12:32 | 61.97036 | -6.97613 | 9602 ft | 264 kts | 100° |
| 2026-05-07 12:33 | 61.96602 | -6.89672 | 10637 ft | 288 kts | 100° |
| 2026-05-07 12:33 | 61.96363 | -6.85330 | 10968 ft | 305 kts | 100° |
| 2026-05-07 12:33 | 61.96111 | -6.80731 | 11375 ft | 319 kts | 100° |
| 2026-05-07 12:34 | 61.95851 | -6.76011 | 12005 ft | 325 kts | 101° |
| 2026-05-07 12:34 | 61.95593 | -6.71276 | 12656 ft | 329 kts | 101° |
| 2026-05-07 12:34 | 61.95325 | -6.66431 | 13282 ft | 334 kts | 101° |
| 2026-05-07 12:34 | 61.95050 | -6.61530 | 13874 ft | 338 kts | 101° |
| 2026-05-07 12:35 | 61.94767 | -6.56548 | 14446 ft | 343 kts | 101° |
| 2026-05-07 12:35 | 61.94480 | -6.51520 | 15013 ft | 348 kts | 101° |
| 2026-05-07 12:35 | 61.94187 | -6.46368 | 15621 ft | 352 kts | 101° |
| 2026-05-07 12:35 | 61.93892 | -6.41212 | 16218 ft | 355 kts | 100° |
| 2026-05-07 12:36 | 61.93594 | -6.36061 | 16828 ft | 358 kts | 101° |
| 2026-05-07 12:36 | 61.93286 | -6.30774 | 17416 ft | 361 kts | 102° |
| 2026-05-07 12:36 | 61.92974 | -6.25465 | 17990 ft | 365 kts | 102° |
| 2026-05-07 12:36 | 61.92659 | -6.20134 | 18550 ft | 367 kts | 101° |
| 2026-05-07 12:37 | 61.92341 | -6.14765 | 19091 ft | 371 kts | 102° |
| 2026-05-07 12:37 | 61.92015 | -6.09303 | 19595 ft | 375 kts | 101° |
| 2026-05-07 12:37 | 61.91690 | -6.03859 | 20053 ft | 380 kts | 103° |
| 2026-05-07 12:37 | 61.91351 | -5.98283 | 20505 ft | 384 kts | 102° |
| 2026-05-07 12:38 | 61.91003 | -5.92608 | 20942 ft | 389 kts | 102° |
| 2026-05-07 12:38 | 61.90654 | -5.86951 | 21372 ft | 394 kts | 102° |
| 2026-05-07 12:38 | 61.90296 | -5.81149 | 21773 ft | 399 kts | 103° |
| 2026-05-07 12:38 | 61.89932 | -5.75316 | 22165 ft | 403 kts | 103° |
| 2026-05-07 12:39 | 61.89561 | -5.69431 | 22584 ft | 407 kts | 102° |
| 2026-05-07 12:39 | 61.89185 | -5.63487 | 22996 ft | 411 kts | 103° |
| 2026-05-07 12:39 | 61.88804 | -5.57496 | 23366 ft | 416 kts | 103° |
| 2026-05-07 12:39 | 61.88412 | -5.51379 | 23736 ft | 420 kts | 103° |
| 2026-05-07 12:40 | 61.88011 | -5.45195 | 24105 ft | 425 kts | 103° |
| 2026-05-07 12:40 | 61.87606 | -5.38980 | 24493 ft | 428 kts | 102° |
| 2026-05-07 12:40 | 61.87197 | -5.32770 | 24894 ft | 431 kts | 104° |
| 2026-05-07 12:40 | 61.86782 | -5.26504 | 25291 ft | 434 kts | 104° |
| 2026-05-07 12:41 | 61.86357 | -5.20114 | 25646 ft | 437 kts | 104° |
| 2026-05-07 12:41 | 61.85933 | -5.13786 | 25988 ft | 441 kts | 104° |
| 2026-05-07 12:41 | 61.85495 | -5.07296 | 26329 ft | 444 kts | 104° |
| 2026-05-07 12:41 | 61.85060 | -5.00911 | 26678 ft | 447 kts | 104° |
| 2026-05-07 12:42 | 61.84613 | -4.94364 | 27012 ft | 451 kts | 104° |
| 2026-05-07 12:42 | 61.84161 | -4.87774 | 27356 ft | 453 kts | 104° |
| 2026-05-07 12:42 | 61.83705 | -4.81221 | 27687 ft | 456 kts | 104° |
| 2026-05-07 12:42 | 61.83241 | -4.74575 | 28006 ft | 459 kts | 104° |
| 2026-05-07 12:43 | 61.82767 | -4.67860 | 28332 ft | 462 kts | 104° |
| 2026-05-07 12:43 | 61.82288 | -4.61111 | 28647 ft | 465 kts | 104° |
| 2026-05-07 12:43 | 61.81806 | -4.54360 | 28945 ft | 468 kts | 104° |
| 2026-05-07 12:43 | 61.81313 | -4.47514 | 29225 ft | 471 kts | 104° |
| 2026-05-07 12:44 | 61.80815 | -4.40662 | 29524 ft | 473 kts | 104° |
| 2026-05-07 12:44 | 61.80320 | -4.33865 | 29895 ft | 474 kts | 104° |
| 2026-05-07 12:44 | 61.79816 | -4.26979 | 30285 ft | 474 kts | 104° |
| 2026-05-07 12:44 | 61.79310 | -4.20143 | 30653 ft | 474 kts | 104° |
| 2026-05-07 12:45 | 61.78796 | -4.13260 | 31005 ft | 474 kts | 104° |
| 2026-05-07 12:45 | 61.78287 | -4.06479 | 31327 ft | 474 kts | 104° |
| 2026-05-07 12:45 | 61.77768 | -3.99621 | 31635 ft | 474 kts | 104° |
| 2026-05-07 12:45 | 61.77241 | -3.92739 | 31903 ft | 474 kts | 104° |
| 2026-05-07 12:46 | 61.76713 | -3.85872 | 32152 ft | 474 kts | 104° |
| 2026-05-07 12:46 | 61.76186 | -3.79049 | 32436 ft | 474 kts | 104° |
| 2026-05-07 12:46 | 61.75659 | -3.72261 | 32703 ft | 473 kts | 103° |
| 2026-05-07 12:46 | 61.75125 | -3.65435 | 32945 ft | 473 kts | 103° |
| 2026-05-07 12:47 | 61.74583 | -3.58570 | 33203 ft | 473 kts | 103° |
| 2026-05-07 12:47 | 61.74046 | -3.51786 | 33415 ft | 475 kts | 103° |
| 2026-05-07 12:47 | 61.73500 | -3.44966 | 33612 ft | 476 kts | 103° |
| 2026-05-07 12:47 | 61.72946 | -3.38081 | 33816 ft | 477 kts | 103° |
| 2026-05-07 12:48 | 61.72393 | -3.31228 | 34016 ft | 478 kts | 104° |
| 2026-05-07 12:48 | 61.71836 | -3.24387 | 34208 ft | 479 kts | 104° |
| 2026-05-07 12:48 | 61.71269 | -3.17451 | 34407 ft | 480 kts | 104° |
| 2026-05-07 12:48 | 61.70704 | -3.10595 | 34616 ft | 480 kts | 103° |
| 2026-05-07 12:49 | 61.70126 | -3.03637 | 34812 ft | 481 kts | 103° |
| 2026-05-07 12:49 | 61.69556 | -2.96802 | 34861 ft | 481 kts | 103° |
| 2026-05-07 12:49 | 61.68384 | -2.82899 | 34876 ft | 482 kts | 103° |
| 2026-05-07 12:50 | 61.67202 | -2.69041 | 34888 ft | 482 kts | 103° |
| 2026-05-07 12:50 | 61.66003 | -2.55175 | 34894 ft | 483 kts | 104° |
| 2026-05-07 12:51 | 61.64788 | -2.41330 | 34922 ft | 482 kts | 104° |
| 2026-05-07 12:51 | 61.63575 | -2.27616 | 34922 ft | 483 kts | 105° |
| 2026-05-07 12:52 | 61.62327 | -2.13719 | 34923 ft | 485 kts | 105° |
| 2026-05-07 12:52 | 61.61070 | -1.99902 | 34911 ft | 485 kts | 105° |
| 2026-05-07 12:53 | 61.59782 | -1.85873 | 34912 ft | 487 kts | 105° |
| 2026-05-07 12:53 | 61.58481 | -1.71914 | 34925 ft | 486 kts | 104° |
| 2026-05-07 12:54 | 61.57170 | -1.57958 | 34950 ft | 487 kts | 105° |
| 2026-05-07 12:54 | 61.55854 | -1.44148 | 34946 ft | 487 kts | 104° |
| 2026-05-07 12:55 | 61.54518 | -1.30261 | 34950 ft | 488 kts | 106° |
| 2026-05-07 12:55 | 61.53166 | -1.16388 | 34960 ft | 488 kts | 105° |
| 2026-05-07 12:56 | 61.51803 | -1.02547 | 34966 ft | 488 kts | 105° |
| 2026-05-07 12:56 | 61.50420 | -0.88663 | 34977 ft | 489 kts | 105° |
| 2026-05-07 12:57 | 61.49021 | -0.74769 | 34971 ft | 490 kts | 105° |
| 2026-05-07 12:57 | 61.47609 | -0.60902 | 34980 ft | 491 kts | 105° |
| 2026-05-07 12:58 | 61.46184 | -0.47045 | 34992 ft | 491 kts | 105° |
| 2026-05-07 12:58 | 61.44738 | -0.33153 | 34988 ft | 491 kts | 107° |
| 2026-05-07 12:59 | 61.43283 | -0.19320 | 34987 ft | 491 kts | 107° |
| 2026-05-07 12:59 | 61.41810 | -0.05447 | 34982 ft | 491 kts | 106° |
| 2026-05-07 13:00 | 61.40316 | 0.08446 | 34986 ft | 492 kts | 106° |
| 2026-05-07 13:00 | 61.38812 | 0.22297 | 34998 ft | 492 kts | 106° |
| 2026-05-07 13:01 | 61.37301 | 0.36098 | 35015 ft | 493 kts | 106° |
| 2026-05-07 13:01 | 61.35757 | 0.50032 | 35011 ft | 494 kts | 107° |
| 2026-05-07 13:02 | 61.34213 | 0.63844 | 35026 ft | 494 kts | 106° |
| 2026-05-07 13:02 | 61.32642 | 0.77758 | 35030 ft | 495 kts | 107° |
| 2026-05-07 13:03 | 61.31055 | 0.91646 | 35021 ft | 496 kts | 107° |
| 2026-05-07 13:03 | 61.29446 | 1.05600 | 35036 ft | 495 kts | 107° |
| 2026-05-07 13:04 | 61.27837 | 1.19414 | 35022 ft | 496 kts | 107° |
| 2026-05-07 13:04 | 61.26199 | 1.33349 | 35033 ft | 497 kts | 107° |
| 2026-05-07 13:05 | 61.24555 | 1.47208 | 35031 ft | 497 kts | 107° |
| 2026-05-07 13:05 | 61.22890 | 1.61117 | 35038 ft | 498 kts | 107° |
| 2026-05-07 13:06 | 61.21221 | 1.74911 | 35036 ft | 498 kts | 108° |
| 2026-05-07 13:06 | 61.19520 | 1.88815 | 35039 ft | 498 kts | 108° |
| 2026-05-07 13:07 | 61.17818 | 2.02600 | 35033 ft | 498 kts | 108° |
| 2026-05-07 13:07 | 61.16095 | 2.16454 | 35051 ft | 500 kts | 108° |
| 2026-05-07 13:08 | 61.14352 | 2.30348 | 35054 ft | 499 kts | 108° |
| 2026-05-07 13:08 | 61.12598 | 2.44166 | 35048 ft | 500 kts | 108° |
| 2026-05-07 13:09 | 61.10823 | 2.58038 | 35051 ft | 502 kts | 108° |
| 2026-05-07 13:09 | 61.09040 | 2.71884 | 35056 ft | 502 kts | 108° |
| 2026-05-07 13:10 | 61.07233 | 2.85755 | 35067 ft | 502 kts | 109° |
| 2026-05-07 13:10 | 61.05405 | 2.99631 | 35058 ft | 503 kts | 108° |
| 2026-05-07 13:11 | 61.03586 | 3.13463 | 35072 ft | 503 kts | 107° |
| 2026-05-07 13:11 | 61.02282 | 3.27590 | 35070 ft | 506 kts | 98° |
| 2026-05-07 13:12 | 61.01863 | 3.41959 | 35079 ft | 507 kts | 91° |
| 2026-05-07 13:12 | 61.01799 | 3.56470 | 35079 ft | 507 kts | 91° |
| 2026-05-07 13:13 | 61.01709 | 3.70984 | 35059 ft | 508 kts | 91° |
| 2026-05-07 13:13 | 61.01582 | 3.85426 | 35019 ft | 507 kts | 91° |
| 2026-05-07 13:14 | 61.01432 | 3.99961 | 35069 ft | 508 kts | 91° |
| 2026-05-07 13:14 | 61.01264 | 4.14419 | 35051 ft | 507 kts | 91° |
| 2026-05-07 13:15 | 61.01078 | 4.28862 | 35072 ft | 507 kts | 91° |
| 2026-05-07 13:15 | 61.00879 | 4.43300 | 35058 ft | 506 kts | 91° |
| 2026-05-07 13:16 | 61.00665 | 4.57782 | 35071 ft | 506 kts | 91° |
| 2026-05-07 13:16 | 61.00436 | 4.72247 | 35124 ft | 505 kts | 92° |
| 2026-05-07 13:17 | 61.00190 | 4.86624 | 35090 ft | 504 kts | 92° |
| 2026-05-07 13:17 | 60.99930 | 5.01031 | 35080 ft | 505 kts | 92° |
| 2026-05-07 13:18 | 60.99655 | 5.15327 | 35078 ft | 504 kts | 92° |
| 2026-05-07 13:18 | 60.99364 | 5.29798 | 35053 ft | 504 kts | 92° |
| 2026-05-07 13:19 | 60.99060 | 5.44122 | 35042 ft | 504 kts | 92° |
| 2026-05-07 13:19 | 60.98737 | 5.58529 | 35032 ft | 503 kts | 91° |
| 2026-05-07 13:20 | 60.98402 | 5.72922 | 35033 ft | 503 kts | 93° |
| 2026-05-07 13:20 | 60.98051 | 5.87177 | 35022 ft | 503 kts | 92° |
| 2026-05-07 13:21 | 60.97686 | 6.01551 | 34999 ft | 503 kts | 93° |
| 2026-05-07 13:21 | 60.97306 | 6.15839 | 34985 ft | 503 kts | 93° |
| 2026-05-07 13:22 | 60.96905 | 6.30141 | 34994 ft | 503 kts | 92° |
| 2026-05-07 13:22 | 60.96493 | 6.44558 | 35009 ft | 502 kts | 92° |
| 2026-05-07 13:23 | 60.96068 | 6.58829 | 35009 ft | 502 kts | 92° |
| 2026-05-07 13:23 | 60.95631 | 6.73035 | 34993 ft | 502 kts | 94° |
| 2026-05-07 13:24 | 60.95173 | 6.87298 | 34991 ft | 501 kts | 93° |
| 2026-05-07 13:24 | 60.94702 | 7.01530 | 35007 ft | 501 kts | 93° |
| 2026-05-07 13:25 | 60.94217 | 7.15805 | 34992 ft | 500 kts | 93° |
| 2026-05-07 13:25 | 60.93720 | 7.30009 | 34981 ft | 501 kts | 93° |
| 2026-05-07 13:26 | 60.93200 | 7.44273 | 34993 ft | 500 kts | 93° |
| 2026-05-07 13:26 | 60.92668 | 7.58526 | 34988 ft | 501 kts | 93° |
| 2026-05-07 13:27 | 60.92124 | 7.72749 | 34977 ft | 500 kts | 94° |
| 2026-05-07 13:27 | 60.91565 | 7.86891 | 34963 ft | 500 kts | 94° |
| 2026-05-07 13:28 | 60.90989 | 8.01070 | 34975 ft | 500 kts | 94° |
| 2026-05-07 13:28 | 60.90397 | 8.15284 | 34975 ft | 500 kts | 94° |
| 2026-05-07 13:29 | 60.89787 | 8.29520 | 34967 ft | 501 kts | 94° |
| 2026-05-07 13:29 | 60.89167 | 8.43705 | 34955 ft | 500 kts | 94° |
| 2026-05-07 13:30 | 60.88533 | 8.57824 | 34953 ft | 501 kts | 94° |
| 2026-05-07 13:30 | 60.87882 | 8.72031 | 34975 ft | 501 kts | 95° |
| 2026-05-07 13:31 | 60.87215 | 8.86220 | 34988 ft | 501 kts | 95° |
| 2026-05-07 13:31 | 60.86534 | 9.00344 | 34992 ft | 500 kts | 95° |
| 2026-05-07 13:32 | 60.85840 | 9.14479 | 34996 ft | 500 kts | 95° |
| 2026-05-07 13:32 | 60.85133 | 9.28579 | 34985 ft | 500 kts | 95° |
| 2026-05-07 13:33 | 60.84409 | 9.42687 | 34990 ft | 499 kts | 95° |
| 2026-05-07 13:33 | 60.83671 | 9.56772 | 34996 ft | 499 kts | 95° |
| 2026-05-07 13:34 | 60.82541 | 9.77850 | 35007 ft | 497 kts | 96° |
| 2026-05-07 13:35 | 60.81761 | 9.91849 | 35017 ft | 498 kts | 97° |
| 2026-05-07 13:35 | 60.80607 | 10.05815 | 35005 ft | 498 kts | 100° |
| 2026-05-07 13:36 | 60.79338 | 10.19675 | 35020 ft | 497 kts | 100° |
| 2026-05-07 13:36 | 60.78052 | 10.33554 | 35032 ft | 497 kts | 100° |
| 2026-05-07 13:37 | 60.76765 | 10.47411 | 35022 ft | 497 kts | 100° |
| 2026-05-07 13:37 | 60.75469 | 10.61195 | 35018 ft | 497 kts | 100° |
| 2026-05-07 13:38 | 60.74157 | 10.75003 | 35018 ft | 497 kts | 101° |
| 2026-05-07 13:38 | 60.72831 | 10.88807 | 35026 ft | 497 kts | 101° |
| 2026-05-07 13:39 | 60.71488 | 11.02608 | 35027 ft | 496 kts | 101° |
| 2026-05-07 13:39 | 60.70141 | 11.16317 | 35019 ft | 497 kts | 101° |
| 2026-05-07 13:40 | 60.68771 | 11.30093 | 35026 ft | 497 kts | 101° |
| 2026-05-07 13:40 | 60.67383 | 11.43879 | 35027 ft | 497 kts | 101° |
| 2026-05-07 13:41 | 60.65986 | 11.57618 | 35011 ft | 497 kts | 101° |
| 2026-05-07 13:41 | 60.64585 | 11.71273 | 35029 ft | 496 kts | 102° |
| 2026-05-07 13:42 | 60.63153 | 11.85051 | 35020 ft | 497 kts | 102° |
| 2026-05-07 13:42 | 60.61724 | 11.98645 | 35020 ft | 496 kts | 102° |
| 2026-05-07 13:43 | 60.60274 | 12.12326 | 35020 ft | 496 kts | 102° |
| 2026-05-07 13:43 | 60.58810 | 12.25988 | 35019 ft | 496 kts | 102° |
| 2026-05-07 13:44 | 60.57326 | 12.39670 | 35004 ft | 496 kts | 102° |
| 2026-05-07 13:44 | 60.55844 | 12.53231 | 35023 ft | 496 kts | 102° |
| 2026-05-07 13:45 | 60.54335 | 12.66860 | 35015 ft | 496 kts | 103° |
| 2026-05-07 13:45 | 60.52822 | 12.80437 | 34998 ft | 495 kts | 103° |
| 2026-05-07 13:46 | 60.51296 | 12.93932 | 35005 ft | 494 kts | 103° |
| 2026-05-07 13:46 | 60.49752 | 13.07479 | 35024 ft | 495 kts | 103° |
| 2026-05-07 13:47 | 60.48195 | 13.21005 | 35012 ft | 494 kts | 103° |
| 2026-05-07 13:47 | 60.46630 | 13.34493 | 35022 ft | 494 kts | 103° |
| 2026-05-07 13:48 | 60.45048 | 13.47990 | 35005 ft | 494 kts | 103° |
| 2026-05-07 13:48 | 60.43461 | 13.61395 | 34984 ft | 493 kts | 103° |
| 2026-05-07 13:49 | 60.41844 | 13.74901 | 34994 ft | 493 kts | 104° |
| 2026-05-07 13:49 | 60.40227 | 13.88312 | 34996 ft | 493 kts | 104° |
| 2026-05-07 13:50 | 60.38593 | 14.01721 | 34995 ft | 493 kts | 104° |
| 2026-05-07 13:50 | 60.36955 | 14.15048 | 34993 ft | 493 kts | 104° |
| 2026-05-07 13:51 | 60.35299 | 14.28403 | 35007 ft | 493 kts | 104° |
| 2026-05-07 13:51 | 60.33618 | 14.41828 | 35022 ft | 493 kts | 104° |
| 2026-05-07 13:52 | 60.31937 | 14.55127 | 35016 ft | 493 kts | 104° |
| 2026-05-07 13:52 | 60.30232 | 14.68487 | 34992 ft | 493 kts | 105° |
| 2026-05-07 13:53 | 60.28537 | 14.81767 | 35010 ft | 492 kts | 103° |
| 2026-05-07 13:53 | 60.27223 | 14.95228 | 35014 ft | 492 kts | 100° |
| 2026-05-07 13:54 | 60.26022 | 15.08685 | 34998 ft | 491 kts | 100° |
| 2026-05-07 13:54 | 60.24794 | 15.22203 | 35018 ft | 491 kts | 100° |
| 2026-05-07 13:55 | 60.23552 | 15.35606 | 35002 ft | 491 kts | 100° |
| 2026-05-07 13:55 | 60.22292 | 15.49035 | 34998 ft | 490 kts | 100° |
| 2026-05-07 13:56 | 60.21022 | 15.62408 | 35010 ft | 490 kts | 100° |
| 2026-05-07 13:56 | 60.19731 | 15.75860 | 35013 ft | 490 kts | 101° |
| 2026-05-07 13:57 | 60.18431 | 15.89225 | 35011 ft | 489 kts | 101° |
| 2026-05-07 13:57 | 60.17122 | 16.02557 | 35017 ft | 488 kts | 102° |
| 2026-05-07 13:58 | 60.15805 | 16.15822 | 35040 ft | 488 kts | 102° |
| 2026-05-07 13:58 | 60.14469 | 16.29117 | 35033 ft | 488 kts | 101° |
| 2026-05-07 13:59 | 60.13126 | 16.42368 | 35033 ft | 487 kts | 102° |
| 2026-05-07 13:59 | 60.11766 | 16.55632 | 35055 ft | 487 kts | 101° |
| 2026-05-07 14:00 | 60.10400 | 16.68854 | 35032 ft | 487 kts | 102° |
| 2026-05-07 14:00 | 60.09019 | 16.82046 | 35039 ft | 487 kts | 103° |
| 2026-05-07 14:01 | 60.07623 | 16.95233 | 35028 ft | 486 kts | 103° |
| 2026-05-07 14:01 | 60.06221 | 17.08367 | 35039 ft | 486 kts | 103° |
| 2026-05-07 14:02 | 60.04794 | 17.21576 | 35034 ft | 485 kts | 103° |
| 2026-05-07 14:02 | 60.03362 | 17.34710 | 35020 ft | 485 kts | 103° |
| 2026-05-07 14:03 | 60.01924 | 17.47788 | 35048 ft | 485 kts | 103° |
| 2026-05-07 14:03 | 60.00464 | 17.60920 | 35037 ft | 485 kts | 103° |
| 2026-05-07 14:04 | 59.98987 | 17.74076 | 35038 ft | 485 kts | 104° |
| 2026-05-07 14:04 | 59.97508 | 17.87124 | 35037 ft | 486 kts | 104° |
| 2026-05-07 14:05 | 59.96008 | 18.00241 | 35047 ft | 485 kts | 104° |
| 2026-05-07 14:05 | 59.94499 | 18.13338 | 35050 ft | 485 kts | 104° |
| 2026-05-07 14:06 | 59.92984 | 18.26325 | 35051 ft | 485 kts | 104° |
| 2026-05-07 14:06 | 59.91445 | 18.39396 | 35049 ft | 485 kts | 104° |
| 2026-05-07 14:07 | 59.89898 | 18.52411 | 35066 ft | 485 kts | 104° |
| 2026-05-07 14:07 | 59.88338 | 18.65427 | 35071 ft | 485 kts | 105° |
| 2026-05-07 14:08 | 59.86763 | 18.78445 | 35066 ft | 485 kts | 105° |
| 2026-05-07 14:08 | 59.85186 | 18.91367 | 35072 ft | 485 kts | 105° |
| 2026-05-07 14:09 | 59.83583 | 19.04387 | 35066 ft | 485 kts | 105° |
| 2026-05-07 14:09 | 59.81973 | 19.17342 | 35069 ft | 485 kts | 105° |
| 2026-05-07 14:10 | 59.80358 | 19.30229 | 35060 ft | 485 kts | 106° |
| 2026-05-07 14:10 | 59.78717 | 19.43191 | 35073 ft | 484 kts | 106° |
| 2026-05-07 14:11 | 59.77071 | 19.56081 | 35063 ft | 485 kts | 106° |
| 2026-05-07 14:11 | 59.75413 | 19.68948 | 35065 ft | 484 kts | 107° |
| 2026-05-07 14:12 | 59.73814 | 19.81901 | 35072 ft | 484 kts | 105° |
| 2026-05-07 14:12 | 59.72301 | 19.94812 | 35060 ft | 485 kts | 105° |
| 2026-05-07 14:13 | 59.70765 | 20.07762 | 35084 ft | 484 kts | 106° |
| 2026-05-07 14:13 | 59.69208 | 20.20669 | 35078 ft | 484 kts | 106° |
| 2026-05-07 14:14 | 59.67646 | 20.33482 | 35069 ft | 483 kts | 106° |
| 2026-05-07 14:14 | 59.66062 | 20.46364 | 35084 ft | 483 kts | 106° |
| 2026-05-07 14:15 | 59.64471 | 20.59180 | 35087 ft | 483 kts | 106° |
| 2026-05-07 14:15 | 59.62864 | 20.72021 | 35096 ft | 482 kts | 107° |
| 2026-05-07 14:16 | 59.61250 | 20.84806 | 35073 ft | 482 kts | 107° |
| 2026-05-07 14:16 | 59.59628 | 20.97527 | 35092 ft | 482 kts | 107° |
| 2026-05-07 14:17 | 59.57996 | 21.10242 | 35080 ft | 482 kts | 107° |
| 2026-05-07 14:17 | 59.56346 | 21.22970 | 35068 ft | 481 kts | 107° |
| 2026-05-07 14:18 | 59.54680 | 21.35725 | 35021 ft | 479 kts | 107° |
| 2026-05-07 14:18 | 59.53844 | 21.42082 | 34489 ft | 483 kts | 108° |
| 2026-05-07 14:18 | 59.52998 | 21.48468 | 33689 ft | 494 kts | 107° |
| 2026-05-07 14:18 | 59.52132 | 21.54978 | 33086 ft | 497 kts | 107° |
| 2026-05-07 14:19 | 59.51252 | 21.61596 | 32542 ft | 496 kts | 107° |
| 2026-05-07 14:19 | 59.50378 | 21.68148 | 31934 ft | 495 kts | 108° |
| 2026-05-07 14:19 | 59.49510 | 21.74624 | 31257 ft | 496 kts | 108° |
| 2026-05-07 14:19 | 59.48622 | 21.81202 | 30490 ft | 497 kts | 108° |
| 2026-05-07 14:20 | 59.47741 | 21.87696 | 29691 ft | 498 kts | 108° |
| 2026-05-07 14:20 | 59.46847 | 21.94278 | 29103 ft | 493 kts | 108° |
| 2026-05-07 14:20 | 59.45974 | 22.00676 | 28631 ft | 487 kts | 108° |
| 2026-05-07 14:20 | 59.45096 | 22.07083 | 28078 ft | 482 kts | 108° |
| 2026-05-07 14:21 | 59.44227 | 22.13404 | 27521 ft | 478 kts | 108° |
| 2026-05-07 14:21 | 59.43367 | 22.19614 | 26971 ft | 474 kts | 108° |
| 2026-05-07 14:21 | 59.42504 | 22.25834 | 26423 ft | 470 kts | 108° |
| 2026-05-07 14:21 | 59.41649 | 22.31961 | 25840 ft | 466 kts | 108° |
| 2026-05-07 14:22 | 59.40803 | 22.38010 | 25294 ft | 462 kts | 108° |
| 2026-05-07 14:22 | 59.39959 | 22.44013 | 24740 ft | 458 kts | 108° |
| 2026-05-07 14:22 | 59.39111 | 22.50031 | 24184 ft | 455 kts | 108° |
| 2026-05-07 14:22 | 59.38273 | 22.55955 | 23655 ft | 451 kts | 108° |
| 2026-05-07 14:23 | 59.37438 | 22.61838 | 23128 ft | 447 kts | 108° |
| 2026-05-07 14:23 | 59.36602 | 22.67702 | 22628 ft | 442 kts | 109° |
| 2026-05-07 14:23 | 59.35761 | 22.73577 | 22123 ft | 438 kts | 109° |
| 2026-05-07 14:23 | 59.34944 | 22.79266 | 21635 ft | 434 kts | 109° |
| 2026-05-07 14:24 | 59.34123 | 22.84963 | 21139 ft | 430 kts | 109° |
| 2026-05-07 14:24 | 59.33320 | 22.90518 | 20654 ft | 426 kts | 108° |
| 2026-05-07 14:24 | 59.32512 | 22.96082 | 20173 ft | 423 kts | 108° |
| 2026-05-07 14:24 | 59.31711 | 23.01587 | 19697 ft | 419 kts | 108° |
| 2026-05-07 14:25 | 59.30918 | 23.07011 | 19234 ft | 416 kts | 108° |
| 2026-05-07 14:25 | 59.30120 | 23.12457 | 18728 ft | 413 kts | 108° |
| 2026-05-07 14:25 | 59.29339 | 23.17775 | 18288 ft | 410 kts | 108° |
| 2026-05-07 14:25 | 59.28551 | 23.23117 | 17822 ft | 406 kts | 108° |
| 2026-05-07 14:26 | 59.27782 | 23.28317 | 17377 ft | 402 kts | 108° |
| 2026-05-07 14:26 | 59.27000 | 23.33585 | 16943 ft | 399 kts | 108° |
| 2026-05-07 14:26 | 59.26236 | 23.38697 | 16530 ft | 394 kts | 107° |
| 2026-05-07 14:26 | 59.25482 | 23.43765 | 16240 ft | 387 kts | 106° |
| 2026-05-07 14:27 | 59.25126 | 23.48916 | 15877 ft | 379 kts | 84° |
| 2026-05-07 14:27 | 59.25682 | 23.53772 | 15326 ft | 363 kts | 69° |
| 2026-05-07 14:27 | 59.26551 | 23.58366 | 14671 ft | 357 kts | 66° |
| 2026-05-07 14:27 | 59.27445 | 23.62847 | 14310 ft | 352 kts | 66° |
| 2026-05-07 14:28 | 59.28301 | 23.67295 | 13865 ft | 341 kts | 68° |
| 2026-05-07 14:28 | 59.29081 | 23.71522 | 13310 ft | 330 kts | 69° |
| 2026-05-07 14:28 | 59.29826 | 23.75678 | 12835 ft | 318 kts | 69° |
| 2026-05-07 14:28 | 59.30529 | 23.79676 | 12275 ft | 309 kts | 69° |
| 2026-05-07 14:29 | 59.31218 | 23.83622 | 11623 ft | 304 kts | 70° |
| 2026-05-07 14:29 | 59.31886 | 23.87470 | 10977 ft | 299 kts | 70° |
| 2026-05-07 14:29 | 59.32545 | 23.91287 | 10350 ft | 294 kts | 70° |
| 2026-05-07 14:29 | 59.33200 | 23.95094 | 9687 ft | 289 kts | 69° |
| 2026-05-07 14:30 | 59.33834 | 23.98781 | 9069 ft | 284 kts | 69° |
| 2026-05-07 14:30 | 59.34450 | 24.02368 | 8523 ft | 277 kts | 70° |
| 2026-05-07 14:30 | 59.35056 | 24.05900 | 8093 ft | 267 kts | 70° |
| 2026-05-07 14:30 | 59.35627 | 24.09236 | 7652 ft | 257 kts | 70° |
| 2026-05-07 14:31 | 59.36189 | 24.12513 | 7200 ft | 250 kts | 70° |
| 2026-05-07 14:31 | 59.36731 | 24.15692 | 6714 ft | 245 kts | 70° |
| 2026-05-07 14:31 | 59.37261 | 24.18802 | 6208 ft | 240 kts | 70° |
| 2026-05-07 14:31 | 59.37788 | 24.21909 | 5665 ft | 238 kts | 70° |
| 2026-05-07 14:32 | 59.38306 | 24.24962 | 5116 ft | 237 kts | 70° |
| 2026-05-07 14:32 | 59.38816 | 24.27974 | 4579 ft | 236 kts | 70° |
| 2026-05-07 14:32 | 59.39330 | 24.31020 | 4043 ft | 234 kts | 70° |
| 2026-05-07 14:32 | 59.39836 | 24.34023 | 3530 ft | 232 kts | 70° |
| 2026-05-07 14:33 | 59.40334 | 24.36983 | 3212 ft | 222 kts | 70° |
| 2026-05-07 14:33 | 59.40804 | 24.39785 | 3118 ft | 210 kts | 69° |
| 2026-05-07 14:33 | 59.41246 | 24.42472 | 2981 ft | 205 kts | 73° |
| 2026-05-07 14:33 | 59.41389 | 24.45223 | 2817 ft | 204 kts | 86° |
| 2026-05-07 14:34 | 59.41415 | 24.47959 | 2668 ft | 200 kts | 85° |
| 2026-05-07 14:34 | 59.41456 | 24.50684 | 2603 ft | 196 kts | 86° |
| 2026-05-07 14:34 | 59.41470 | 24.53346 | 2419 ft | 196 kts | 87° |
| 2026-05-07 14:34 | 59.41463 | 24.56002 | 2315 ft | 197 kts | 88° |
| 2026-05-07 14:35 | 59.41445 | 24.58679 | 2209 ft | 195 kts | 88° |
| 2026-05-07 14:35 | 59.41426 | 24.61188 | 2123 ft | 174 kts | 88° |
| 2026-05-07 14:35 | 59.41411 | 24.63496 | 1904 ft | 165 kts | 88° |
| 2026-05-07 14:35 | 59.41399 | 24.65703 | 1712 ft | 163 kts | 88° |
| 2026-05-07 14:36 | 59.41388 | 24.67929 | 1491 ft | 163 kts | 88° |
| 2026-05-07 14:36 | 59.41378 | 24.70143 | 1268 ft | 163 kts | 88° |
| 2026-05-07 14:36 | 59.41367 | 24.72358 | 1045 ft | 162 kts | 88° |
| 2026-05-07 14:36 | 59.41342 | 24.74559 | 793 ft | 161 kts | 88° |
| 2026-05-07 14:37 | 59.41328 | 24.76749 | 531 ft | 156 kts | 87° |
| 2026-05-07 14:37 | 59.41333 | 24.80707 | 193 ft | 138 kts | 88° |
| 2026-05-07 14:37 | 59.41335 | 24.82487 | 147 ft | 117 kts | 90° |
| 2026-05-07 14:38 | 59.41334 | 24.83750 | 150 ft | 67 kts | 92° |
| 2026-05-07 14:38 | 59.41325 | 24.84447 | 151 ft | 38 kts | 90° |
| 2026-05-07 14:38 | 59.41324 | 24.84841 | 150 ft | 24 kts | 90° |
| 2026-05-07 14:38 | 59.41381 | 24.85007 | 150 ft | 13 kts | 5° |
| 2026-05-07 14:39 | 59.41475 | 24.84986 | 150 ft | 14 kts | 327° |
| 2026-05-07 14:39 | 59.41498 | 24.84802 | 150 ft | 15 kts | 270° |
| 2026-05-07 14:39 | 59.41496 | 24.84588 | 150 ft | 16 kts | 270° |
| 2026-05-07 14:39 | 59.41497 | 24.84295 | 150 ft | 23 kts | 270° |
| 2026-05-07 14:40 | 59.41501 | 24.83969 | 150 ft | 23 kts | 270° |
| 2026-05-07 14:40 | 59.41500 | 24.83647 | 150 ft | 23 kts | 271° |
| 2026-05-07 14:40 | 59.41501 | 24.83318 | 147 ft | 25 kts | 270° |
| 2026-05-07 14:40 | 59.41501 | 24.82979 | 147 ft | 25 kts | 270° |
| 2026-05-07 14:41 | 59.41502 | 24.82640 | 147 ft | 24 kts | 270° |
| 2026-05-07 14:41 | 59.41504 | 24.82302 | 147 ft | 24 kts | 270° |
| 2026-05-07 14:41 | 59.41504 | 24.82034 | 147 ft | 17 kts | 270° |
| 2026-05-07 14:41 | 59.41505 | 24.81786 | 147 ft | 18 kts | 270° |
| 2026-05-07 14:42 | 59.41505 | 24.81528 | 147 ft | 19 kts | 270° |
| 2026-05-07 14:42 | 59.41505 | 24.81273 | 150 ft | 18 kts | 271° |
| 2026-05-07 14:42 | 59.41507 | 24.81028 | 153 ft | 17 kts | 271° |
| 2026-05-07 14:42 | 59.41507 | 24.80788 | 154 ft | 17 kts | 271° |
| 2026-05-07 14:43 | 59.41508 | 24.80578 | 154 ft | 11 kts | 273° |
| 2026-05-07 14:43 | 59.41525 | 24.80423 | 154 ft | 12 kts | 278° |
| 2026-05-07 14:43 | 59.41528 | 24.80267 | 154 ft | 11 kts | 272° |
| 2026-05-07 14:43 | 59.41529 | 24.80123 | 153 ft | 8 kts | 271° |
| 2026-05-07 14:44 | 59.41534 | 24.80066 | 152 ft | 2 kts | 347° |
| 2026-05-07 14:44 | 59.41556 | 24.80068 | 153 ft | 2 kts | 2° |
| 2026-05-07 14:44 | 59.41575 | 24.80069 | 153 ft | 2 kts | 1° |
| 2026-05-07 14:44 | 59.41587 | 24.80069 | 153 ft | 0 kts | 1° |